Data for 07/12/2018

Time Sea-Level Adjusted Pressure Absolute Pressure Temperature Relative Humidity Dew Point   
(mb) (inHg) (mb) (inHg) (C) (F) (%) (C) (F)
00:05 1022 30.18 851 25.13 19.6 67.2 51 9.4 48.8
00:10 1022 30.18 851 25.13 19.5 67.2 51 9.4 48.9
00:15 1022 30.18 851 25.13 19.5 67.1 52 9.5 49.1
00:20 1022 30.18 851 25.13 19.5 67.1 52 9.5 49.2
00:25 1022 30.18 851 25.13 19.5 67 52 9.5 49
00:30 1022 30.18 851 25.13 19.5 67.1 52 9.4 49
00:35 1022 30.18 851 25.13 19.6 67.2 53 10 49.9
00:40 1022 30.18 852 25.16 19.3 66.8 54 10 50
00:45 1022 30.18 851 25.13 19.2 66.5 54 9.8 49.7
00:50 1022 30.18 851 25.13 19.5 67 51 9.3 48.7
00:55 1022 30.18 852 25.16 19.8 67.6 51 9.5 49.1
01:00 1022 30.18 852 25.16 19.5 67 55 10.2 50.4
01:05 1022 30.18 852 25.16 18.9 66.1 59 10.9 51.6
01:10 1022 30.18 851 25.13 18.4 65.1 61 10.8 51.4
01:15 1022 30.18 851 25.13 18.1 64.6 62 10.7 51.3
01:20 1021 30.15 851 25.13 18.2 64.7 62 10.8 51.4
01:25 1021 30.15 851 25.13 18.1 64.5 62 10.7 51.3
01:30 1022 30.18 851 25.13 18.1 64.5 61 10.6 51.1
01:35 1022 30.18 851 25.13 18 64.4 63 10.9 51.6
01:40 1022 30.18 851 25.13 17.8 64 65 11.1 52
01:45 1022 30.18 851 25.13 17.6 63.7 62 10.4 50.7
01:50 1022 30.18 851 25.13 17.9 64.2 61 10.4 50.7
01:55 1022 30.18 851 25.13 17.9 64.3 62 10.5 51
02:00 1022 30.18 851 25.13 17.8 64 62 10.4 50.7
02:05 1021 30.15 851 25.13 17.7 63.8 63 10.6 51.1
02:10 1021 30.15 851 25.13 17.2 63 65 10.7 51.3
02:15 1022 30.18 851 25.13 16.8 62.2 67 10.6 51.2
02:20 1022 30.18 851 25.13 16.5 61.8 68 10.7 51.2
02:25 1022 30.18 851 25.13 16.3 61.4 69 10.7 51.3
02:30 1022 30.18 851 25.13 16.1 61 70 10.7 51.2
02:35 1022 30.18 851 25.13 16.1 60.9 70 10.6 51.1
02:40 1022 30.18 851 25.13 15.9 60.7 71 10.7 51.2
02:45 1022 30.18 851 25.13 15.8 60.4 71 10.5 50.9
02:50 1022 30.18 851 25.13 15.8 60.4 71 10.5 50.9
02:55 1022 30.18 851 25.13 15.7 60.3 71 10.5 50.9
03:00 1022 30.18 851 25.13 15.5 60 72 10.5 50.9
03:05 1022 30.18 851 25.13 15.2 59.4 73 10.4 50.8
03:10 1022 30.18 851 25.13 15 58.9 74 10.3 50.6
03:15 1022 30.18 851 25.13 14.8 58.6 74 10.2 50.4
03:20 1022 30.18 851 25.13 14.6 58.4 74 10 50.1
03:25 1022 30.18 851 25.13 14.7 58.4 73 9.8 49.7
03:30 1022 30.18 851 25.13 14.7 58.5 74 10.2 50.4
03:35 1022 30.18 851 25.13 14.6 58.2 75 10.2 50.3
03:40 1022 30.18 851 25.13 14.4 57.9 76 10.2 50.4
03:45 1022 30.18 851 25.13 14.3 57.7 76 10 50.1
03:50 1022 30.18 851 25.13 14.2 57.5 75 9.9 49.8
03:55 1022 30.18 851 25.13 14.2 57.5 75 9.8 49.6
04:00 1022 30.18 851 25.13 14.2 57.6 74 9.7 49.5
04:05 1022 30.18 851 25.13 14.2 57.6 75 9.8 49.6
04:10 1022 30.18 851 25.13 14.2 57.5 75 9.8 49.6
04:15 1022 30.18 851 25.13 14 57.2 75 9.8 49.6
04:20 1022 30.18 851 25.13 13.8 56.9 76 9.7 49.5
04:25 1022 30.18 851 25.13 13.6 56.6 76 9.6 49.3
04:30 1022 30.18 851 25.13 13.7 56.6 76 9.6 49.2
04:35 1022 30.18 851 25.13 13.8 56.8 76 9.7 49.4
04:40 1022 30.18 851 25.13 13.8 56.8 76 9.7 49.5
04:45 1022 30.18 851 25.13 13.8 56.8 76 9.6 49.3
04:50 1022 30.18 851 25.13 13.8 56.8 76 9.6 49.3
04:55 1022 30.18 851 25.13 13.9 56.9 75 9.5 49.2
05:00 1022 30.18 851 25.13 14 57.2 74 9.5 49.1
05:05 1022 30.18 851 25.13 14 57.2 75 9.6 49.3
05:10 1022 30.18 851 25.13 13.7 56.7 75 9.5 49.1
05:15 1022 30.18 851 25.13 13.6 56.5 75 9.4 48.8
05:20 1022 30.18 851 25.13 13.7 56.7 75 9.4 48.9
05:25 1022 30.18 851 25.13 13.8 56.9 74 9.4 48.9
05:30 1022 30.18 851 25.13 13.6 56.5 75 9.4 48.9
05:35 1022 30.18 851 25.13 13.4 56 76 9.3 48.7
05:40 1022 30.18 851 25.13 13.3 56 76 9.2 48.5
05:45 1022 30.18 851 25.13 13.3 55.9 76 9.2 48.5
05:50 1022 30.18 851 25.13 13.4 56.1 76 9.2 48.5
05:55 1022 30.18 852 25.16 13.3 56 76 9.2 48.6
06:00 1022 30.18 852 25.16 13.3 55.9 76 9.2 48.5
06:05 1022 30.18 852 25.16 13.4 56 75 9.1 48.4
06:10 1022 30.18 852 25.16 13.5 56.3 74 9.1 48.3
06:15 1022 30.18 852 25.16 13.9 57.1 73 9.2 48.5
06:20 1022 30.18 852 25.16 14 57.2 72 9.2 48.5
06:25 1022 30.18 852 25.16 14.2 57.6 71 9.1 48.4
06:30 1022 30.18 852 25.16 14.3 57.7 72 9.3 48.7
06:35 1022 30.18 852 25.16 14.2 57.6 72 9.4 48.9
06:40 1023 30.21 852 25.16 14.2 57.5 72 9.3 48.8
06:45 1023 30.21 852 25.16 14.1 57.4 73 9.3 48.8
06:50 1023 30.21 852 25.16 14.1 57.3 73 9.4 48.9
06:55 1023 30.21 852 25.16 14.2 57.5 73 9.4 48.9
07:00 1023 30.21 852 25.16 14.5 58 71 9.4 48.9
07:05 1023 30.21 852 25.16 14.6 58.2 71 9.5 49.1
07:10 1023 30.21 852 25.16 14.8 58.6 71 9.6 49.2
07:15 1023 30.21 852 25.16 14.9 58.9 71 9.8 49.6
07:20 1023 30.21 852 25.16 15.1 59.1 70 9.7 49.5
07:25 1023 30.21 852 25.16 15.3 59.5 69 9.8 49.6
07:30 1023 30.21 852 25.16 15.5 60 68 9.8 49.6
07:35 1023 30.21 852 25.16 15.8 60.4 67 9.7 49.5
07:40 1023 30.21 852 25.16 16.4 61.5 65 9.9 49.8
07:45 1023 30.21 852 25.16 16.8 62.2 65 10.1 50.3
07:50 1023 30.21 852 25.16 17 62.6 64 10.2 50.4
07:55 1023 30.21 852 25.16 17.1 62.8 63 10.2 50.3
08:00 1023 30.21 852 25.16 17.6 63.8 62 10.3 50.5
08:05 1023 30.21 852 25.16 17.8 64 61 10.2 50.4
08:10 1023 30.21 852 25.16 18.4 65.2 58 10.1 50.1
08:15 1023 30.21 852 25.16 18.8 65.9 58 10.6 51
08:20 1023 30.21 852 25.16 19 66.1 57 10.4 50.8
08:25 1023 30.21 852 25.16 19 66.2 58 10.5 51
08:30 1023 30.21 852 25.16 18.8 65.9 58 10.5 50.8
08:35 1023 30.21 852 25.16 19.4 66.9 55 10.1 50.2
08:40 1023 30.21 852 25.16 19.2 66.6 56 10.4 50.8
08:45 1023 30.21 852 25.16 19 66.1 57 10.4 50.7
08:50 1023 30.21 852 25.16 19 66.3 56 10.2 50.4
08:55 1023 30.21 852 25.16 19.1 66.3 56 10.3 50.5
09:00 1023 30.21 852 25.16 19.5 67.1 56 10.5 50.9
09:05 1023 30.21 852 25.16 18.7 65.7 57 10.1 50.2
09:10 1023 30.21 852 25.16 18.8 65.9 56 10 50
09:15 1023 30.21 852 25.16 19.3 66.7 53 9.5 49.2
09:20 1023 30.21 852 25.16 19.8 67.6 55 10.6 51.1
09:25 1023 30.21 852 25.16 19.6 67.3 57 11.1 51.9
09:30 1023 30.21 852 25.16 19.5 67.1 56 10.5 51
09:35 1023 30.21 852 25.16 20 68 57 11.4 52.5
09:40 1023 30.21 852 25.16 19.5 67.2 57 10.8 51.5
09:45 1023 30.21 852 25.16 19.9 67.9 54 10.6 51
09:50 1023 30.21 852 25.16 19.9 67.8 55 10.8 51.4
09:55 1023 30.21 852 25.16 20.5 68.8 54 11 51.7
10:00 1023 30.21 852 25.16 20.2 68.4 54 10.8 51.5
10:05 1023 30.21 853 25.19 19.9 67.7 54 10.5 51
10:10 1023 30.21 853 25.19 19.8 67.6 54 10.4 50.8
10:15 1023 30.21 852 25.16 20.6 69 52 10.4 50.8
10:20 1023 30.21 852 25.16 21.2 70.2 51 10.7 51.3
10:25 1023 30.21 852 25.16 21.2 70.1 51 10.8 51.5
10:30 1023 30.21 852 25.16 21.3 70.4 50 10.6 51.1
10:35 1023 30.21 852 25.16 20.7 69.2 53 10.8 51.5
10:40 1023 30.21 852 25.16 20.7 69.2 52 10.5 50.9
10:45 1023 30.21 852 25.16 21.5 70.7 48 10.3 50.6
10:50 1023 30.21 852 25.16 22.5 72.5 46 10.4 50.8
10:55 1023 30.21 852 25.16 22.7 72.9 44 10.1 50.2
11:00 1023 30.21 852 25.16 22.8 73 44 10.1 50.1
11:05 1023 30.21 852 25.16 23.1 73.5 43 10.1 50.2
11:10 1023 30.21 852 25.16 23.3 74 44 10.5 50.9
11:15 1023 30.21 852 25.16 23.4 74.1 45 10.9 51.6
11:20 1023 30.21 852 25.16 23.5 74.3 42 9.9 49.8
11:25 1023 30.21 852 25.16 23.5 74.3 43 10.5 50.8
11:30 1023 30.21 852 25.16 23.1 73.6 42 9.7 49.4
11:35 1023 30.21 852 25.16 23.6 74.6 42 10.1 50.1
11:40 1023 30.21 852 25.16 23.9 75 43 10.6 51.1
11:45 1023 30.21 852 25.16 23.3 74 40 9.3 48.8
11:50 1023 30.21 852 25.16 23.8 74.9 39 9.3 48.8
11:55 1023 30.21 852 25.16 24.2 75.5 38 9.4 48.8
12:00 1023 30.21 852 25.16 24.3 75.7 39 9.5 49.1
12:05 1023 30.21 852 25.16 23.4 74.1 42 9.9 49.8
12:10 1023 30.21 852 25.16 23 73.5 42 9.5 49.1
12:15 1023 30.21 852 25.16 22.8 73.1 40 8.8 47.8
12:20 1023 30.21 852 25.16 23.3 73.9 39 8.8 47.9
12:25 1023 30.21 852 25.16 24.2 75.5 38 9.2 48.6
12:30 1023 30.21 852 25.16 24.1 75.3 40 9.7 49.4
12:35 1023 30.21 852 25.16 24 75.3 39 9.6 49.3
12:40 1023 30.21 852 25.16 24.4 76 38 9.5 49.1
12:45 1023 30.21 852 25.16 24.6 76.2 36 8.9 48.1
12:50 1023 30.21 852 25.16 24.9 76.8 36 9.2 48.5
12:55 1023 30.21 852 25.16 25.6 78.1 36 9.5 49.1
13:00 1023 30.21 852 25.16 25.5 78 35 9 48.2
13:05 1023 30.21 852 25.16 24.9 76.8 36 9.2 48.5
13:10 1023 30.21 852 25.16 24.6 76.2 38 9.5 49
13:15 1023 30.21 852 25.16 24.5 76.1 37 9.1 48.3
13:20 1023 30.21 852 25.16 25.1 77.2 36 9.3 48.7
13:25 1023 30.21 852 25.16 25.9 78.6 34 8.9 48.1
13:30 1023 30.21 852 25.16 25.8 78.4 35 9.3 48.7
13:35 1023 30.21 852 25.16 26 78.8 33 8.9 48
13:40 1023 30.21 852 25.16 26.2 79.1 36 10 50.1
13:45 1023 30.21 852 25.16 26.2 79.1 36 10.2 50.3
13:50 1023 30.21 852 25.16 26.7 80 34 9.6 49.3
13:55 1023 30.21 852 25.16 26.9 80.3 34 10 50
14:00 1023 30.21 852 25.16 27 80.5 33 9.6 49.4
14:05 1023 30.21 852 25.16 26.8 80.3 33 9.3 48.8
14:10 1023 30.21 852 25.16 27 80.6 32 9.4 48.9
14:15 1022 30.18 852 25.16 27.1 80.7 32 9 48.3
14:20 1022 30.18 852 25.16 26.6 79.8 34 9.5 49.1
14:25 1022 30.18 852 25.16 26.9 80.4 33 9.4 49
14:30 1022 30.18 852 25.16 27.4 81.2 31 9.2 48.6
14:35 1022 30.18 852 25.16 26.9 80.4 32 9.2 48.6
14:40 1022 30.18 852 25.16 26.9 80.5 31 8.5 47.4
14:45 1022 30.18 852 25.16 27.3 81.2 30 8.5 47.3
14:50 1022 30.18 852 25.16 27.3 81.1 30 8.6 47.5
14:55 1022 30.18 852 25.16 27.2 81 31 8.9 48
15:00 1022 30.18 852 25.16 26.5 79.8 33 9 48.2
15:05 1022 30.18 851 25.13 26.1 79 35 9.5 49.1
15:10 1022 30.18 851 25.13 26.7 80.1 33 9.4 48.9
15:15 1022 30.18 851 25.13 27.2 80.9 32 9.2 48.6
15:20 1022 30.18 851 25.13 27.6 81.6 31 9 48.2
15:25 1022 30.18 851 25.13 27.5 81.6 32 9.7 49.5
15:30 1022 30.18 851 25.13 27.6 81.6 31 9 48.2
15:35 1022 30.18 851 25.13 26.8 80.2 31 8.7 47.7
15:40 1022 30.18 851 25.13 27.8 82 33 10.2 50.3
15:45 1022 30.18 851 25.13 28.1 82.5 31 9.5 49.1
15:50 1022 30.18 851 25.13 28.1 82.5 31 9.7 49.5
15:55 1022 30.18 851 25.13 28.4 83 31 9.7 49.5
16:00 1022 30.18 851 25.13 27.3 81.2 32 9.7 49.4
16:05 1022 30.18 851 25.13 27.8 82 32 9.9 49.8
16:10 1022 30.18 851 25.13 28 82.3 31 9.6 49.3
16:15 1022 30.18 851 25.13 26.9 80.4 33 9.3 48.8
16:20 1022 30.18 851 25.13 27 80.7 32 9.2 48.6
16:25 1022 30.18 851 25.13 27.4 81.3 30 8.7 47.7
16:30 1022 30.18 851 25.13 28.5 83.2 30 9.3 48.7
16:35 1022 30.18 851 25.13 28.5 83.4 29 9.3 48.8
16:40 1022 30.18 851 25.13 28.6 83.4 29 8.9 48.1
16:45 1022 30.18 851 25.13 28.2 82.8 29 8.8 47.9
16:50 1022 30.18 851 25.13 28.2 82.7 29 8.6 47.5
16:55 1022 30.18 851 25.13 28.1 82.5 30 9.2 48.5
17:00 1022 30.18 851 25.13 28.1 82.6 30 9.2 48.6
17:05 1022 30.18 851 25.13 28.2 82.7 29 9 48.1
17:10 1022 30.18 851 25.13 28.6 83.6 29 9.1 48.3
17:15 1022 30.18 851 25.13 28.8 83.8 28 8.9 48
17:20 1022 30.18 851 25.13 28.2 82.8 30 9.2 48.5
17:25 1022 30.18 851 25.13 28.2 82.8 27 7.7 45.8
17:30 1022 30.18 851 25.13 27.3 81.2 28 7.3 45.1
17:35 1022 30.18 851 25.13 27.7 81.9 27 7.3 45.2
17:40 1022 30.18 851 25.13 28.2 82.7 27 7.9 46.2
17:45 1022 30.18 851 25.13 28.1 82.5 28 8.2 46.8
17:50 1022 30.18 851 25.13 28.4 83.2 27 8.1 46.6
17:55 1022 30.18 851 25.13 28 82.4 27 7.5 45.4
18:00 1022 30.18 851 25.13 28.3 82.9 26 7.5 45.5
18:05 1022 30.18 851 25.13 28 82.3 27 7.3 45.2
18:10 1022 30.18 851 25.13 28 82.5 26 7 44.6
18:15 1022 30.18 851 25.13 28.4 83 25 6.9 44.5
18:20 1022 30.18 851 25.13 28.7 83.6 25 7.2 45
18:25 1022 30.18 851 25.13 28.5 83.3 26 7.5 45.5
18:30 1022 30.18 851 25.13 28 82.4 26 7 44.6
18:35 1022 30.18 851 25.13 27.1 80.7 27 6.5 43.7
18:40 1022 30.18 851 25.13 27.3 81.2 26 6.4 43.6
18:45 1022 30.18 851 25.13 27.1 80.7 28 7.2 45
18:50 1022 30.18 851 25.13 27.6 81.6 25 6.1 43
18:55 1022 30.18 851 25.13 26.8 80.2 27 6.6 43.8
19:00 1022 30.18 851 25.13 26.7 80.1 27 6.2 43.1
19:05 1022 30.18 851 25.13 26.6 79.9 27 6.5 43.6
19:10 1022 30.18 851 25.13 27 80.5 26 6.4 43.5
19:15 1022 30.18 851 25.13 27 80.6 27 6.9 44.4
19:20 1022 30.18 851 25.13 26.8 80.3 26 6.1 43
19:25 1022 30.18 851 25.13 26.7 80 27 6.5 43.7
19:30 1022 30.18 851 25.13 26.3 79.4 32 8.4 47.1
19:35 1022 30.18 851 25.13 25.8 78.5 33 8.4 47.2
19:40 1022 30.18 851 25.13 25.7 78.3 32 8.1 46.7
19:45 1022 30.18 851 25.13 25.6 78.1 32 8 46.4
19:50 1022 30.18 851 25.13 25.6 78 31 7.5 45.4
19:55 1022 30.18 851 25.13 25.7 78.2 31 7.4 45.2
20:00 1022 30.18 851 25.13 25.6 78.2 32 8 46.3
20:05 1022 30.18 851 25.13 25.6 78 32 7.8 46.1
20:10 1022 30.18 851 25.13 25.6 78.1 31 7.6 45.6
20:15 1022 30.18 851 25.13 25.5 77.9 34 8.8 47.8
20:20 1022 30.18 851 25.13 25.3 77.6 34 8.6 47.4
20:25 1022 30.18 851 25.13 25.3 77.5 33 8.3 46.9
20:30 1022 30.18 851 25.13 25.2 77.4 35 9.1 48.3
20:35 1022 30.18 851 25.13 25.1 77.2 34 8.4 47.2
20:40 1022 30.18 851 25.13 25.1 77.1 35 8.6 47.4
20:45 1022 30.18 851 25.13 24.9 76.8 35 8.5 47.4
20:50 1022 30.18 851 25.13 24.8 76.7 35 8.6 47.4
20:55 1022 30.18 851 25.13 24.8 76.6 36 9 48.3
21:00 1022 30.18 851 25.13 24.5 76.1 42 10.8 51.5
21:05 1022 30.18 851 25.13 23.8 74.8 47 11.9 53.4
21:10 1022 30.18 851 25.13 23 73.3 45 10.7 51.3
21:15 1022 30.18 851 25.13 22.3 72.1 46 10.2 50.4
21:20 1022 30.18 851 25.13 21.8 71.2 48 10.4 50.7
21:25 1022 30.18 851 25.13 21.1 69.9 53 11.4 52.4
21:30 1022 30.18 851 25.13 20.5 68.9 56 11.6 52.8
21:35 1022 30.18 851 25.13 20.5 69 56 11.5 52.7
21:40 1022 30.18 851 25.13 20.7 69.2 55 11.5 52.6
21:45 1022 30.18 851 25.13 20.7 69.2 53 10.9 51.6
21:50 1022 30.18 851 25.13 20.5 68.9 54 11.1 51.9
21:55 1022 30.18 852 25.16 20.2 68.4 54 10.7 51.2
22:00 1022 30.18 852 25.16 19.8 67.7 54 10.4 50.8
22:05 1023 30.21 852 25.16 19.8 67.6 50 9 48.2
22:10 1023 30.21 852 25.16 19.8 67.6 51 9.5 49
22:15 1023 30.21 852 25.16 19.3 66.8 52 9.5 49
22:20 1023 30.21 852 25.16 18.8 65.9 54 9.3 48.8
22:25 1023 30.21 852 25.16 18.6 65.5 55 9.4 48.9
22:30 1023 30.21 852 25.16 18.3 65 56 9.4 49
22:35 1023 30.21 852 25.16 18.2 64.8 56 9.4 49
22:40 1023 30.21 852 25.16 18.1 64.6 57 9.4 49
22:45 1023 30.21 852 25.16 18 64.4 57 9.5 49.1
22:50 1023 30.21 852 25.16 17.8 64 58 9.5 49.1
22:55 1023 30.21 852 25.16 17.5 63.6 59 9.5 49.1
23:00 1023 30.21 852 25.16 17.5 63.6 59 9.4 49
23:05 1023 30.21 852 25.16 17.5 63.5 59 9.6 49.4
23:10 1023 30.21 852 25.16 17.5 63.6 59 9.6 49.3
23:15 1023 30.21 852 25.16 17.5 63.6 60 9.8 49.7
23:20 1023 30.21 852 25.16 17.5 63.6 61 10 50
23:25 1023 30.21 852 25.16 17.6 63.6 61 10.1 50.2
23:30 1023 30.21 852 25.16 17.5 63.5 61 10 50
23:35 1023 30.21 852 25.16 17.7 63.9 60 10 50
23:40 1023 30.21 852 25.16 17.7 63.8 61 10.1 50.2
23:45 1023 30.21 852 25.16 17.3 63.1 62 10.1 50.2
23:50 1023 30.21 852 25.16 17.2 63 62 9.9 49.8
23:55 1023 30.21 852 25.16 17.3 63.1 62 10 49.9
24:00 1023 30.21 852 25.16 17.4 63.3 61 9.8 49.6